sensor_id;sensor_type;location;lat;lon;timestamp;pressure;altitude;pressure_sealevel;temperature;humidity
20971;BME280;10644;48.834;10.088;2023-02-19T00:02:05;97136.41;;;12.76;71.46
20971;BME280;10644;48.834;10.088;2023-02-19T00:04:41;97129.06;;;12.70;71.52
20971;BME280;10644;48.834;10.088;2023-02-19T00:07:39;97127.47;;;12.68;71.45
20971;BME280;10644;48.834;10.088;2023-02-19T00:10:22;97130.69;;;12.71;71.79
20971;BME280;10644;48.834;10.088;2023-02-19T00:12:50;97126.38;;;12.87;71.35
20971;BME280;10644;48.834;10.088;2023-02-19T00:15:16;97130.28;;;12.79;71.64
20971;BME280;10644;48.834;10.088;2023-02-19T00:17:42;97120.72;;;12.81;71.76
20971;BME280;10644;48.834;10.088;2023-02-19T00:20:16;97125.72;;;12.99;71.09
20971;BME280;10644;48.834;10.088;2023-02-19T00:22:50;97121.03;;;12.90;70.97
20971;BME280;10644;48.834;10.088;2023-02-19T00:25:42;97118.16;;;12.96;71.13
20971;BME280;10644;48.834;10.088;2023-02-19T00:28:07;97113.53;;;12.87;71.65
20971;BME280;10644;48.834;10.088;2023-02-19T00:30:50;97124.31;;;12.78;71.80
20971;BME280;10644;48.834;10.088;2023-02-19T00:33:15;97115.44;;;12.68;72.26
20971;BME280;10644;48.834;10.088;2023-02-19T00:35:43;97125.56;;;12.71;72.27
20971;BME280;10644;48.834;10.088;2023-02-19T00:38:08;97119.25;;;12.61;72.50
20971;BME280;10644;48.834;10.088;2023-02-19T00:40:34;97125.06;;;12.65;72.43
20971;BME280;10644;48.834;10.088;2023-02-19T00:43:17;97120.28;;;12.74;71.76
20971;BME280;10644;48.834;10.088;2023-02-19T00:46:03;97113.78;;;12.98;70.84
20971;BME280;10644;48.834;10.088;2023-02-19T00:48:38;97124.78;;;13.00;70.71
20971;BME280;10644;48.834;10.088;2023-02-19T00:51:13;97121.53;;;13.12;70.43
20971;BME280;10644;48.834;10.088;2023-02-19T00:53:40;97131.47;;;13.18;70.20
20971;BME280;10644;48.834;10.088;2023-02-19T00:56:07;97106.16;;;12.97;70.97
20971;BME280;10644;48.834;10.088;2023-02-19T00:58:33;97115.25;;;13.02;70.89
20971;BME280;10644;48.834;10.088;2023-02-19T01:00:59;97125.44;;;13.04;71.02
20971;BME280;10644;48.834;10.088;2023-02-19T01:03:26;97125.44;;;13.04;70.92
20971;BME280;10644;48.834;10.088;2023-02-19T01:05:52;97126.28;;;13.04;71.06
20971;BME280;10644;48.834;10.088;2023-02-19T01:08:19;97113.94;;;12.80;71.62
20971;BME280;10644;48.834;10.088;2023-02-19T01:10:53;97104.66;;;12.77;71.70
20971;BME280;10644;48.834;10.088;2023-02-19T01:13:19;97105.81;;;12.87;71.72
20971;BME280;10644;48.834;10.088;2023-02-19T01:15:45;97100.66;;;13.03;71.37
20971;BME280;10644;48.834;10.088;2023-02-19T01:18:19;97100.56;;;13.04;70.90
20971;BME280;10644;48.834;10.088;2023-02-19T01:20:55;97100.22;;;13.10;70.79
20971;BME280;10644;48.834;10.088;2023-02-19T01:23:21;97074.88;;;13.18;69.95
20971;BME280;10644;48.834;10.088;2023-02-19T01:25:52;97081.34;;;13.25;69.84
20971;BME280;10644;48.834;10.088;2023-02-19T01:28:19;97080.00;;;13.18;69.78
20971;BME280;10644;48.834;10.088;2023-02-19T01:31:04;97072.66;;;13.12;69.78
20971;BME280;10644;48.834;10.088;2023-02-19T01:33:31;97075.22;;;13.12;70.40
20971;BME280;10644;48.834;10.088;2023-02-19T01:36:02;97071.44;;;13.04;70.67
20971;BME280;10644;48.834;10.088;2023-02-19T01:38:40;97059.34;;;13.06;70.45
20971;BME280;10644;48.834;10.088;2023-02-19T01:46:36;97035.31;;;12.91;70.94
20971;BME280;10644;48.834;10.088;2023-02-19T01:49:28;97020.22;;;12.85;70.82
20971;BME280;10644;48.834;10.088;2023-02-19T01:54:31;97039.03;;;12.56;72.10
20971;BME280;10644;48.834;10.088;2023-02-19T01:57:01;97038.78;;;12.45;72.78
20971;BME280;10644;48.834;10.088;2023-02-19T02:00:05;97042.34;;;12.58;72.19
20971;BME280;10644;48.834;10.088;2023-02-19T02:02:39;97023.78;;;12.53;72.03
20971;BME280;10644;48.834;10.088;2023-02-19T02:05:28;97015.16;;;12.54;72.36
20971;BME280;10644;48.834;10.088;2023-02-19T02:07:57;97016.16;;;12.52;72.13
20971;BME280;10644;48.834;10.088;2023-02-19T02:11:07;97031.28;;;12.42;72.44
20971;BME280;10644;48.834;10.088;2023-02-19T02:13:48;97028.47;;;12.31;72.98
20971;BME280;10644;48.834;10.088;2023-02-19T02:16:35;97024.66;;;12.23;73.50
20971;BME280;10644;48.834;10.088;2023-02-19T02:19:09;97027.50;;;12.18;73.79
20971;BME280;10644;48.834;10.088;2023-02-19T02:22:04;97020.69;;;12.17;73.74
20971;BME280;10644;48.834;10.088;2023-02-19T02:27:40;97015.13;;;12.25;73.45
20971;BME280;10644;48.834;10.088;2023-02-19T02:38:53;97002.31;;;12.09;73.99
20971;BME280;10644;48.834;10.088;2023-02-19T02:41:26;97007.09;;;12.15;74.02
20971;BME280;10644;48.834;10.088;2023-02-19T02:43:58;97008.44;;;12.07;74.24
20971;BME280;10644;48.834;10.088;2023-02-19T02:46:29;97009.75;;;11.98;74.66
20971;BME280;10644;48.834;10.088;2023-02-19T02:49:03;97005.28;;;11.86;74.99
20971;BME280;10644;48.834;10.088;2023-02-19T02:51:37;97003.13;;;11.79;75.70
20971;BME280;10644;48.834;10.088;2023-02-19T02:54:19;96990.22;;;11.96;75.01
20971;BME280;10644;48.834;10.088;2023-02-19T02:57:07;96997.84;;;11.97;75.14
20971;BME280;10644;48.834;10.088;2023-02-19T02:59:42;96996.28;;;11.95;75.41
20971;BME280;10644;48.834;10.088;2023-02-19T03:02:28;96985.66;;;12.01;74.90
20971;BME280;10644;48.834;10.088;2023-02-19T03:05:30;96988.56;;;12.10;74.53
20971;BME280;10644;48.834;10.088;2023-02-19T03:11:12;96998.50;;;11.85;75.67
20971;BME280;10644;48.834;10.088;2023-02-19T03:14:19;96988.72;;;11.76;76.14
20971;BME280;10644;48.834;10.088;2023-02-19T03:17:14;96988.50;;;11.48;77.44
20971;BME280;10644;48.834;10.088;2023-02-19T03:20:04;96984.94;;;11.51;77.43
20971;BME280;10644;48.834;10.088;2023-02-19T03:22:36;96980.88;;;11.47;77.75
20971;BME280;10644;48.834;10.088;2023-02-19T03:25:18;96978.28;;;11.64;77.00
20971;BME280;10644;48.834;10.088;2023-02-19T03:28:06;96976.97;;;11.72;76.98
20971;BME280;10644;48.834;10.088;2023-02-19T03:30:39;96986.47;;;11.55;77.69
20971;BME280;10644;48.834;10.088;2023-02-19T03:33:11;96977.44;;;11.48;78.00
20971;BME280;10644;48.834;10.088;2023-02-19T03:35:52;96985.53;;;11.56;77.47
20971;BME280;10644;48.834;10.088;2023-02-19T03:38:40;96989.25;;;11.67;77.30
20971;BME280;10644;48.834;10.088;2023-02-19T03:41:55;96984.56;;;11.58;77.39
20971;BME280;10644;48.834;10.088;2023-02-19T03:47:24;96971.88;;;11.55;77.96
20971;BME280;10644;48.834;10.088;2023-02-19T03:55:32;96970.88;;;11.58;77.68
20971;BME280;10644;48.834;10.088;2023-02-19T03:58:17;96967.00;;;11.51;77.82
20971;BME280;10644;48.834;10.088;2023-02-19T04:07:00;96987.84;;;11.45;78.40
20971;BME280;10644;48.834;10.088;2023-02-19T04:09:43;96987.19;;;11.41;78.61
20971;BME280;10644;48.834;10.088;2023-02-19T04:12:12;96987.91;;;11.43;78.41
20971;BME280;10644;48.834;10.088;2023-02-19T04:15:07;96990.16;;;11.49;78.25
20971;BME280;10644;48.834;10.088;2023-02-19T04:17:52;96999.09;;;11.42;78.60
20971;BME280;10644;48.834;10.088;2023-02-19T04:20:21;96988.50;;;11.48;77.89
20971;BME280;10644;48.834;10.088;2023-02-19T04:23:25;96997.78;;;11.51;78.40
20971;BME280;10644;48.834;10.088;2023-02-19T04:25:56;97003.91;;;11.48;78.35
20971;BME280;10644;48.834;10.088;2023-02-19T04:28:24;96997.25;;;11.44;78.13
20971;BME280;10644;48.834;10.088;2023-02-19T04:30:50;96999.00;;;11.44;78.02
20971;BME280;10644;48.834;10.088;2023-02-19T04:33:16;96996.59;;;11.41;78.31
20971;BME280;10644;48.834;10.088;2023-02-19T04:35:44;97020.94;;;11.49;78.17
20971;BME280;10644;48.834;10.088;2023-02-19T04:38:27;97022.50;;;11.36;78.09
20971;BME280;10644;48.834;10.088;2023-02-19T04:40:59;97027.75;;;11.33;78.47
20971;BME280;10644;48.834;10.088;2023-02-19T04:43:51;97026.88;;;11.34;78.85
20971;BME280;10644;48.834;10.088;2023-02-19T04:46:16;97031.72;;;11.23;78.91
20971;BME280;10644;48.834;10.088;2023-02-19T04:48:48;97039.09;;;11.29;78.76
20971;BME280;10644;48.834;10.088;2023-02-19T04:51:14;97035.78;;;11.27;78.78
20971;BME280;10644;48.834;10.088;2023-02-19T04:53:45;97046.03;;;11.27;78.35
20971;BME280;10644;48.834;10.088;2023-02-19T04:56:15;97047.41;;;11.34;78.06
20971;BME280;10644;48.834;10.088;2023-02-19T04:59:05;97052.69;;;11.47;77.81
20971;BME280;10644;48.834;10.088;2023-02-19T05:01:38;97061.19;;;11.32;78.04
20971;BME280;10644;48.834;10.088;2023-02-19T05:04:07;97057.66;;;11.34;77.65
20971;BME280;10644;48.834;10.088;2023-02-19T05:06:41;97063.59;;;11.35;77.53
20971;BME280;10644;48.834;10.088;2023-02-19T05:09:20;97049.38;;;11.29;77.58
20971;BME280;10644;48.834;10.088;2023-02-19T05:11:53;97063.66;;;11.33;77.34
20971;BME280;10644;48.834;10.088;2023-02-19T05:14:51;97063.16;;;11.27;77.58
20971;BME280;10644;48.834;10.088;2023-02-19T05:17:18;97074.19;;;11.12;77.47
20971;BME280;10644;48.834;10.088;2023-02-19T05:19:54;97069.13;;;11.10;77.45
20971;BME280;10644;48.834;10.088;2023-02-19T05:22:19;97071.53;;;11.13;77.55
20971;BME280;10644;48.834;10.088;2023-02-19T05:24:49;97067.16;;;11.15;77.01
20971;BME280;10644;48.834;10.088;2023-02-19T05:27:14;97066.19;;;11.18;77.25
20971;BME280;10644;48.834;10.088;2023-02-19T05:29:47;97070.81;;;11.11;77.08
20971;BME280;10644;48.834;10.088;2023-02-19T05:32:17;97077.09;;;11.21;77.24
20971;BME280;10644;48.834;10.088;2023-02-19T05:35:12;97086.38;;;11.24;76.76
20971;BME280;10644;48.834;10.088;2023-02-19T05:37:39;97092.50;;;11.04;76.88
20971;BME280;10644;48.834;10.088;2023-02-19T05:40:07;97081.06;;;10.77;77.29
20971;BME280;10644;48.834;10.088;2023-02-19T05:42:34;97094.03;;;10.56;78.11
20971;BME280;10644;48.834;10.088;2023-02-19T05:45:04;97099.50;;;10.48;78.15
20971;BME280;10644;48.834;10.088;2023-02-19T05:47:29;97085.84;;;10.49;78.16
20971;BME280;10644;48.834;10.088;2023-02-19T05:50:23;97094.84;;;10.39;79.12
20971;BME280;10644;48.834;10.088;2023-02-19T05:52:49;97096.19;;;10.46;78.88
20971;BME280;10644;48.834;10.088;2023-02-19T05:55:16;97100.41;;;10.47;79.02
20971;BME280;10644;48.834;10.088;2023-02-19T05:57:54;97087.91;;;10.41;77.83
20971;BME280;10644;48.834;10.088;2023-02-19T06:00:33;97092.94;;;10.61;77.81
20971;BME280;10644;48.834;10.088;2023-02-19T06:03:08;97083.78;;;10.56;76.60
20971;BME280;10644;48.834;10.088;2023-02-19T06:05:33;97095.00;;;10.53;77.04
20971;BME280;10644;48.834;10.088;2023-02-19T06:08:00;97080.25;;;10.58;76.64
20971;BME280;10644;48.834;10.088;2023-02-19T06:10:37;97082.22;;;10.70;76.68
20971;BME280;10644;48.834;10.088;2023-02-19T06:13:14;97074.72;;;10.67;76.24
20971;BME280;10644;48.834;10.088;2023-02-19T06:16:03;97091.53;;;10.54;76.50
20971;BME280;10644;48.834;10.088;2023-02-19T06:18:33;97096.94;;;10.48;76.10
20971;BME280;10644;48.834;10.088;2023-02-19T06:21:07;97082.97;;;10.55;76.32
20971;BME280;10644;48.834;10.088;2023-02-19T06:23:35;97077.66;;;10.77;75.42
20971;BME280;10644;48.834;10.088;2023-02-19T06:26:12;97095.59;;;10.94;75.05
20971;BME280;10644;48.834;10.088;2023-02-19T06:28:52;97111.88;;;10.93;73.77
20971;BME280;10644;48.834;10.088;2023-02-19T06:31:24;97100.53;;;10.80;73.58
20971;BME280;10644;48.834;10.088;2023-02-19T06:34:11;97107.47;;;10.78;74.59
20971;BME280;10644;48.834;10.088;2023-02-19T06:36:38;97098.72;;;10.65;74.74
20971;BME280;10644;48.834;10.088;2023-02-19T06:39:08;97122.88;;;10.59;74.93
20971;BME280;10644;48.834;10.088;2023-02-19T06:41:58;97125.09;;;10.67;74.45
20971;BME280;10644;48.834;10.088;2023-02-19T06:44:23;97113.50;;;10.60;74.85
20971;BME280;10644;48.834;10.088;2023-02-19T06:47:03;97122.31;;;10.71;74.79
20971;BME280;10644;48.834;10.088;2023-02-19T06:49:34;97114.47;;;10.57;74.55
20971;BME280;10644;48.834;10.088;2023-02-19T06:52:10;97130.13;;;10.51;75.01
20971;BME280;10644;48.834;10.088;2023-02-19T06:54:45;97142.41;;;10.62;74.59
20971;BME280;10644;48.834;10.088;2023-02-19T06:57:16;97160.47;;;10.77;74.02
20971;BME280;10644;48.834;10.088;2023-02-19T06:59:53;97148.69;;;10.73;73.90
20971;BME280;10644;48.834;10.088;2023-02-19T07:02:28;97166.06;;;10.85;73.60
20971;BME280;10644;48.834;10.088;2023-02-19T07:05:03;97160.94;;;10.85;73.80
20971;BME280;10644;48.834;10.088;2023-02-19T07:10:44;97161.63;;;10.89;72.42
20971;BME280;10644;48.834;10.088;2023-02-19T07:13:28;97158.97;;;10.90;72.89
20971;BME280;10644;48.834;10.088;2023-02-19T07:16:00;97167.13;;;10.98;72.34
20971;BME280;10644;48.834;10.088;2023-02-19T07:18:31;97173.97;;;10.81;72.04
20971;BME280;10644;48.834;10.088;2023-02-19T07:21:07;97171.75;;;10.73;72.81
20971;BME280;10644;48.834;10.088;2023-02-19T07:23:43;97166.34;;;10.79;71.83
20971;BME280;10644;48.834;10.088;2023-02-19T07:26:14;97168.41;;;10.71;72.04
20971;BME280;10644;48.834;10.088;2023-02-19T07:28:49;97160.41;;;10.60;72.50
20971;BME280;10644;48.834;10.088;2023-02-19T07:31:16;97178.81;;;10.68;72.05
20971;BME280;10644;48.834;10.088;2023-02-19T07:34:00;97175.78;;;10.60;72.94
20971;BME280;10644;48.834;10.088;2023-02-19T07:36:26;97173.78;;;10.67;72.58
20971;BME280;10644;48.834;10.088;2023-02-19T07:38:56;97183.94;;;10.68;72.57
20971;BME280;10644;48.834;10.088;2023-02-19T07:44:11;97184.75;;;10.87;72.15
20971;BME280;10644;48.834;10.088;2023-02-19T07:46:43;97186.84;;;10.79;71.99
20971;BME280;10644;48.834;10.088;2023-02-19T07:49:09;97179.16;;;10.79;72.00
20971;BME280;10644;48.834;10.088;2023-02-19T07:51:40;97191.25;;;10.94;71.42
20971;BME280;10644;48.834;10.088;2023-02-19T07:54:18;97192.53;;;10.86;71.22
20971;BME280;10644;48.834;10.088;2023-02-19T07:56:44;97188.22;;;10.86;71.21
20971;BME280;10644;48.834;10.088;2023-02-19T07:59:11;97193.63;;;10.80;71.41
20971;BME280;10644;48.834;10.088;2023-02-19T08:01:37;97190.72;;;10.88;70.97
20971;BME280;10644;48.834;10.088;2023-02-19T08:04:30;97199.25;;;11.05;70.43
20971;BME280;10644;48.834;10.088;2023-02-19T08:07:09;97210.41;;;11.04;70.23
20971;BME280;10644;48.834;10.088;2023-02-19T08:09:36;97211.31;;;11.03;70.47
20971;BME280;10644;48.834;10.088;2023-02-19T08:12:02;97214.97;;;10.81;70.86
20971;BME280;10644;48.834;10.088;2023-02-19T08:14:47;97221.09;;;10.95;71.26
20971;BME280;10644;48.834;10.088;2023-02-19T08:17:13;97215.69;;;11.01;70.87
20971;BME280;10644;48.834;10.088;2023-02-19T08:19:38;97226.97;;;10.97;70.75
20971;BME280;10644;48.834;10.088;2023-02-19T08:22:03;97225.91;;;10.84;71.30
20971;BME280;10644;48.834;10.088;2023-02-19T08:24:34;97215.38;;;10.90;70.35
20971;BME280;10644;48.834;10.088;2023-02-19T08:27:08;97223.19;;;10.87;70.74
20971;BME280;10644;48.834;10.088;2023-02-19T08:29:38;97234.91;;;10.93;71.24
20971;BME280;10644;48.834;10.088;2023-02-19T08:32:15;97236.16;;;10.84;71.57
20971;BME280;10644;48.834;10.088;2023-02-19T08:34:56;97244.47;;;10.89;70.99
20971;BME280;10644;48.834;10.088;2023-02-19T08:37:25;97246.41;;;10.84;71.52
20971;BME280;10644;48.834;10.088;2023-02-19T08:39:56;97251.53;;;10.84;71.64
20971;BME280;10644;48.834;10.088;2023-02-19T08:42:22;97252.00;;;10.92;71.55
20971;BME280;10644;48.834;10.088;2023-02-19T08:44:48;97238.56;;;10.87;71.63
20971;BME280;10644;48.834;10.088;2023-02-19T08:47:22;97250.38;;;11.08;71.12
20971;BME280;10644;48.834;10.088;2023-02-19T08:49:49;97258.31;;;10.85;71.63
20971;BME280;10644;48.834;10.088;2023-02-19T08:52:29;97257.63;;;10.82;71.76
20971;BME280;10644;48.834;10.088;2023-02-19T08:54:57;97262.63;;;10.66;72.49
20971;BME280;10644;48.834;10.088;2023-02-19T08:57:29;97272.66;;;10.71;72.12
20971;BME280;10644;48.834;10.088;2023-02-19T08:59:57;97264.97;;;10.89;72.17
20971;BME280;10644;48.834;10.088;2023-02-19T09:02:46;97274.50;;;11.04;71.31
20971;BME280;10644;48.834;10.088;2023-02-19T09:05:14;97266.91;;;11.03;71.14
20971;BME280;10644;48.834;10.088;2023-02-19T09:08:01;97287.59;;;10.98;71.72
20971;BME280;10644;48.834;10.088;2023-02-19T09:11:03;97284.16;;;11.16;70.69
20971;BME280;10644;48.834;10.088;2023-02-19T09:13:31;97281.28;;;11.05;70.83
20971;BME280;10644;48.834;10.088;2023-02-19T09:16:09;97286.41;;;11.05;70.80
20971;BME280;10644;48.834;10.088;2023-02-19T09:18:55;97292.88;;;10.95;71.33
20971;BME280;10644;48.834;10.088;2023-02-19T09:21:42;97287.81;;;11.12;71.19
20971;BME280;10644;48.834;10.088;2023-02-19T09:24:08;97288.44;;;11.17;69.75
20971;BME280;10644;48.834;10.088;2023-02-19T09:26:40;97293.59;;;11.34;69.15
20971;BME280;10644;48.834;10.088;2023-02-19T09:29:05;97302.31;;;11.30;69.71
20971;BME280;10644;48.834;10.088;2023-02-19T09:31:32;97301.53;;;11.11;69.58
20971;BME280;10644;48.834;10.088;2023-02-19T09:34:01;97303.59;;;11.03;69.53
20971;BME280;10644;48.834;10.088;2023-02-19T09:36:28;97318.97;;;11.03;69.76
20971;BME280;10644;48.834;10.088;2023-02-19T09:38:54;97305.81;;;10.92;70.23
20971;BME280;10644;48.834;10.088;2023-02-19T09:41:29;97313.16;;;11.00;70.22
20971;BME280;10644;48.834;10.088;2023-02-19T09:44:01;97308.16;;;11.15;69.65
20971;BME280;10644;48.834;10.088;2023-02-19T09:46:34;97319.25;;;11.16;68.94
20971;BME280;10644;48.834;10.088;2023-02-19T09:49:06;97320.28;;;11.12;68.99
20971;BME280;10644;48.834;10.088;2023-02-19T09:51:35;97325.34;;;11.13;68.59
20971;BME280;10644;48.834;10.088;2023-02-19T09:54:03;97329.97;;;11.05;68.87
20971;BME280;10644;48.834;10.088;2023-02-19T09:56:46;97332.69;;;11.02;69.04
20971;BME280;10644;48.834;10.088;2023-02-19T09:59:25;97336.50;;;11.12;67.91
20971;BME280;10644;48.834;10.088;2023-02-19T10:02:14;97337.88;;;11.19;68.42
20971;BME280;10644;48.834;10.088;2023-02-19T10:04:41;97350.59;;;11.22;68.59
20971;BME280;10644;48.834;10.088;2023-02-19T10:07:21;97355.16;;;11.34;68.09
20971;BME280;10644;48.834;10.088;2023-02-19T10:10:04;97344.59;;;11.22;68.49
20971;BME280;10644;48.834;10.088;2023-02-19T10:12:51;97349.44;;;11.46;68.31
20971;BME280;10644;48.834;10.088;2023-02-19T10:18:48;97340.78;;;11.49;67.70
20971;BME280;10644;48.834;10.088;2023-02-19T10:21:25;97336.81;;;11.60;68.09
20971;BME280;10644;48.834;10.088;2023-02-19T10:24:02;97334.72;;;11.68;67.95
20971;BME280;10644;48.834;10.088;2023-02-19T10:26:29;97333.34;;;11.78;67.85
20971;BME280;10644;48.834;10.088;2023-02-19T10:29:03;97332.03;;;11.88;68.16
20971;BME280;10644;48.834;10.088;2023-02-19T10:31:33;97333.84;;;11.86;68.32
20971;BME280;10644;48.834;10.088;2023-02-19T10:34:21;97347.28;;;12.08;66.81
20971;BME280;10644;48.834;10.088;2023-02-19T10:36:51;97355.00;;;11.91;67.15
20971;BME280;10644;48.834;10.088;2023-02-19T10:42:23;97363.19;;;11.81;66.38
20971;BME280;10644;48.834;10.088;2023-02-19T10:45:01;97356.47;;;11.78;66.54
20971;BME280;10644;48.834;10.088;2023-02-19T10:47:31;97359.34;;;11.89;65.59
20971;BME280;10644;48.834;10.088;2023-02-19T10:49:59;97354.31;;;11.88;65.22
20971;BME280;10644;48.834;10.088;2023-02-19T10:52:32;97358.66;;;11.86;64.93
20971;BME280;10644;48.834;10.088;2023-02-19T10:55:25;97370.22;;;11.94;65.07
20971;BME280;10644;48.834;10.088;2023-02-19T10:57:52;97375.97;;;11.99;63.87
20971;BME280;10644;48.834;10.088;2023-02-19T11:00:27;97378.16;;;11.90;63.90
20971;BME280;10644;48.834;10.088;2023-02-19T11:03:20;97378.09;;;11.91;63.79
20971;BME280;10644;48.834;10.088;2023-02-19T11:06:02;97372.56;;;11.82;63.75
20971;BME280;10644;48.834;10.088;2023-02-19T11:08:57;97367.56;;;11.79;63.41
20971;BME280;10644;48.834;10.088;2023-02-19T11:11:59;97366.88;;;11.75;63.68
20971;BME280;10644;48.834;10.088;2023-02-19T11:14:25;97361.88;;;11.72;63.31
20971;BME280;10644;48.834;10.088;2023-02-19T11:16:55;97362.06;;;11.69;63.37
20971;BME280;10644;48.834;10.088;2023-02-19T11:19:30;97355.41;;;11.82;63.00
20971;BME280;10644;48.834;10.088;2023-02-19T11:21:59;97361.41;;;12.00;62.43
20971;BME280;10644;48.834;10.088;2023-02-19T11:24:30;97365.28;;;12.08;62.13
20971;BME280;10644;48.834;10.088;2023-02-19T11:27:04;97370.41;;;12.08;61.80
20971;BME280;10644;48.834;10.088;2023-02-19T11:29:33;97357.09;;;12.00;61.12
20971;BME280;10644;48.834;10.088;2023-02-19T11:32:27;97373.72;;;12.10;62.27
20971;BME280;10644;48.834;10.088;2023-02-19T11:35:14;97373.56;;;11.96;62.32
20971;BME280;10644;48.834;10.088;2023-02-19T11:37:53;97361.84;;;11.91;61.83
20971;BME280;10644;48.834;10.088;2023-02-19T11:43:51;97363.72;;;11.87;61.83
20971;BME280;10644;48.834;10.088;2023-02-19T11:58:25;97366.78;;;12.12;60.92
20971;BME280;10644;48.834;10.088;2023-02-19T12:19:48;97372.38;;;12.03;61.65
20971;BME280;10644;48.834;10.088;2023-02-19T12:22:32;97385.94;;;12.22;61.67
20971;BME280;10644;48.834;10.088;2023-02-19T12:28:28;97395.47;;;12.20;60.87
20971;BME280;10644;48.834;10.088;2023-02-19T12:31:33;97362.69;;;12.25;60.88
20971;BME280;10644;48.834;10.088;2023-02-19T12:38:03;97376.91;;;12.15;59.72
20971;BME280;10644;48.834;10.088;2023-02-19T12:43:39;97358.97;;;12.48;59.90
20971;BME280;10644;48.834;10.088;2023-02-19T12:46:27;97351.63;;;12.74;59.44
20971;BME280;10644;48.834;10.088;2023-02-19T12:49:57;97365.53;;;12.70;58.33
20971;BME280;10644;48.834;10.088;2023-02-19T12:52:16;97357.59;;;12.58;59.03
20971;BME280;10644;48.834;10.088;2023-02-19T12:54:45;97352.91;;;12.66;58.47
20971;BME280;10644;48.834;10.088;2023-02-19T12:57:17;97349.06;;;12.90;58.66
20971;BME280;10644;48.834;10.088;2023-02-19T13:14:37;97370.66;;;12.70;57.83
20971;BME280;10644;48.834;10.088;2023-02-19T13:20:54;97367.47;;;12.82;57.72
20971;BME280;10644;48.834;10.088;2023-02-19T13:23:38;97367.03;;;12.74;57.83
20971;BME280;10644;48.834;10.088;2023-02-19T13:41:27;97361.50;;;13.14;57.02
20971;BME280;10644;48.834;10.088;2023-02-19T13:43:59;97367.13;;;13.21;56.58
20971;BME280;10644;48.834;10.088;2023-02-19T13:46:38;97370.22;;;13.27;56.37
20971;BME280;10644;48.834;10.088;2023-02-19T13:52:01;97368.06;;;13.35;56.09
20971;BME280;10644;48.834;10.088;2023-02-19T13:54:32;97361.16;;;13.20;55.92
20971;BME280;10644;48.834;10.088;2023-02-19T13:57:28;97372.59;;;13.30;56.46
20971;BME280;10644;48.834;10.088;2023-02-19T13:59:56;97358.84;;;13.31;55.30
20971;BME280;10644;48.834;10.088;2023-02-19T14:02:32;97359.09;;;13.42;55.49
20971;BME280;10644;48.834;10.088;2023-02-19T14:05:08;97346.13;;;13.43;54.83
20971;BME280;10644;48.834;10.088;2023-02-19T14:07:56;97346.72;;;13.33;55.78
20971;BME280;10644;48.834;10.088;2023-02-19T14:14:01;97353.66;;;13.00;57.60
20971;BME280;10644;48.834;10.088;2023-02-19T14:34:21;97395.78;;;12.48;57.79
20971;BME280;10644;48.834;10.088;2023-02-19T14:36:54;97404.91;;;12.37;57.72
20971;BME280;10644;48.834;10.088;2023-02-19T14:39:45;97408.25;;;12.22;58.63
20971;BME280;10644;48.834;10.088;2023-02-19T14:42:24;97402.75;;;12.29;58.70
20971;BME280;10644;48.834;10.088;2023-02-19T14:45:05;97400.31;;;12.26;58.78
20971;BME280;10644;48.834;10.088;2023-02-19T14:47:35;97412.72;;;12.35;58.74
20971;BME280;10644;48.834;10.088;2023-02-19T14:50:05;97407.88;;;12.46;58.78
20971;BME280;10644;48.834;10.088;2023-02-19T14:52:37;97421.31;;;12.51;59.05
20971;BME280;10644;48.834;10.088;2023-02-19T14:55:19;97421.44;;;12.82;58.50
20971;BME280;10644;48.834;10.088;2023-02-19T14:57:49;97430.56;;;12.88;58.41
20971;BME280;10644;48.834;10.088;2023-02-19T15:03:03;97429.50;;;12.59;59.54
20971;BME280;10644;48.834;10.088;2023-02-19T15:05:53;97440.97;;;12.69;59.24
20971;BME280;10644;48.834;10.088;2023-02-19T15:08:28;97422.06;;;12.70;59.34
20971;BME280;10644;48.834;10.088;2023-02-19T15:14:06;97429.00;;;12.34;60.38
20971;BME280;10644;48.834;10.088;2023-02-19T15:16:41;97436.91;;;12.48;60.11
20971;BME280;10644;48.834;10.088;2023-02-19T15:19:08;97429.31;;;12.28;60.80
20971;BME280;10644;48.834;10.088;2023-02-19T15:21:38;97444.00;;;12.43;60.43
20971;BME280;10644;48.834;10.088;2023-02-19T15:24:15;97461.44;;;12.54;60.06
20971;BME280;10644;48.834;10.088;2023-02-19T15:26:50;97460.41;;;12.58;59.88
20971;BME280;10644;48.834;10.088;2023-02-19T15:29:24;97450.34;;;12.53;59.88
20971;BME280;10644;48.834;10.088;2023-02-19T15:35:01;97433.94;;;12.39;60.73
20971;BME280;10644;48.834;10.088;2023-02-19T15:37:45;97438.63;;;12.31;60.91
20971;BME280;10644;48.834;10.088;2023-02-19T15:40:15;97427.16;;;12.21;61.04
20971;BME280;10644;48.834;10.088;2023-02-19T15:42:43;97437.94;;;12.27;61.17
20971;BME280;10644;48.834;10.088;2023-02-19T15:45:30;97435.44;;;12.26;61.25
20971;BME280;10644;48.834;10.088;2023-02-19T15:51:17;97425.25;;;12.07;62.79
20971;BME280;10644;48.834;10.088;2023-02-19T15:54:01;97418.56;;;12.03;62.83
20971;BME280;10644;48.834;10.088;2023-02-19T15:56:32;97420.41;;;12.01;63.25
20971;BME280;10644;48.834;10.088;2023-02-19T15:59:40;97435.47;;;11.90;63.53
20971;BME280;10644;48.834;10.088;2023-02-19T16:02:20;97434.00;;;11.85;63.86
20971;BME280;10644;48.834;10.088;2023-02-19T16:04:46;97440.94;;;12.01;63.61
20971;BME280;10644;48.834;10.088;2023-02-19T16:07:29;97441.53;;;12.06;63.33
20971;BME280;10644;48.834;10.088;2023-02-19T16:10:18;97438.97;;;12.06;63.12
20971;BME280;10644;48.834;10.088;2023-02-19T16:12:58;97441.94;;;12.16;62.70
20971;BME280;10644;48.834;10.088;2023-02-19T16:15:25;97440.97;;;12.18;62.84
20971;BME280;10644;48.834;10.088;2023-02-19T16:17:52;97446.97;;;12.17;63.82
20971;BME280;10644;48.834;10.088;2023-02-19T16:23:13;97442.31;;;12.25;63.26